Time;durP1;ratioP1;P1;durP2;ratioP2;P2;SDS_P1;SDS_P2;PMS_P1;PMS_P2;Temp;Humidity;BMP_temperature;BMP_pressure;BME280_temperature;BME280_humidity;BME280_pressure;Samples;Min_cycle;Max_cycle;Signal;HPM_P1;HPM_P2
2021/04/17 00:02:05;;;;;;;9.80;4.78;;;7.70;58.80;;;;;;5092964;28;20067;-73
2021/04/17 00:04:31;;;;;;;9.73;5.97;;;7.60;58.80;;;;;;5091548;28;20039;-73
2021/04/17 00:06:57;;;;;;;10.15;5.97;;;7.60;58.90;;;;;;5109048;28;20123;-72
2021/04/17 00:09:24;;;;;;;7.75;4.78;;;7.60;59.00;;;;;;5108853;28;20052;-73
2021/04/17 00:11:50;;;;;;;9.13;4.93;;;7.60;59.10;;;;;;5092971;28;20047;-72
2021/04/17 00:14:22;;;;;;;8.85;5.47;;;7.50;59.10;;;;;;5092216;28;20092;-74
2021/04/17 00:16:48;;;;;;;7.20;4.53;;;7.50;59.30;;;;;;5076399;28;20463;-73
2021/04/17 00:19:14;;;;;;;9.07;4.10;;;7.50;59.20;;;;;;5110780;28;20122;-72
2021/04/17 00:21:39;;;;;;;8.13;5.13;;;7.50;59.40;;;;;;5108527;28;20495;-72
2021/04/17 00:24:05;;;;;;;6.40;4.18;;;7.40;59.30;;;;;;5092286;28;20519;-73
2021/04/17 00:26:31;;;;;;;7.68;4.35;;;7.40;59.50;;;;;;5108992;28;20559;-73
2021/04/17 00:28:58;;;;;;;7.75;4.38;;;7.40;60.20;;;;;;5109509;28;20047;-72
2021/04/17 00:31:23;;;;;;;6.60;4.40;;;7.40;59.60;;;;;;5108713;28;20043;-73
2021/04/17 00:33:49;;;;;;;7.78;4.30;;;7.40;59.60;;;;;;5092533;28;20101;-72
2021/04/17 00:36:15;;;;;;;7.18;4.25;;;7.30;59.60;;;;;;5109556;28;20047;-72
2021/04/17 00:38:40;;;;;;;7.13;4.22;;;7.30;60.50;;;;;;5108486;28;20480;-71
2021/04/17 00:41:06;;;;;;;7.88;4.35;;;7.30;59.90;;;;;;5109569;28;20047;-72
2021/04/17 00:43:32;;;;;;;7.90;4.75;;;7.30;59.90;;;;;;5109870;28;20058;-73
2021/04/17 00:45:58;;;;;;;7.80;3.92;;;7.20;60.00;;;;;;5075969;28;20047;-72
2021/04/17 00:48:23;;;;;;;9.52;4.30;;;7.20;60.10;;;;;;5108679;28;20376;-72
2021/04/17 00:50:49;;;;;;;9.57;5.03;;;7.20;61.00;;;;;;5092733;28;20052;-73
2021/04/17 00:53:15;;;;;;;11.60;4.63;;;7.20;60.20;;;;;;5109444;28;20050;-72
2021/04/17 00:55:41;;;;;;;9.07;4.60;;;7.20;60.30;;;;;;5094872;28;20513;-73
2021/04/17 00:58:07;;;;;;;6.85;4.05;;;7.20;60.30;;;;;;5114476;28;20043;-72
2021/04/17 01:00:35;;;;;;;8.43;4.40;;;7.20;60.40;;;;;;5112406;28;20502;-73
2021/04/17 01:03:07;;;;;;;8.40;3.92;;;7.20;60.40;;;;;;5096473;28;20088;-72
2021/04/17 01:05:32;;;;;;;8.48;4.60;;;7.10;60.50;;;;;;5111871;28;20044;-73
2021/04/17 01:08:02;;;;;;;7.28;4.07;;;7.10;60.30;;;;;;5111103;28;20147;-72
2021/04/17 01:10:37;;;;;;;6.93;3.90;;;7.10;60.60;;;;;;5095041;28;20051;-73
2021/04/17 01:13:03;;;;;;;6.03;4.22;;;7.10;60.70;;;;;;5096755;28;20058;-72
2021/04/17 01:15:29;;;;;;;8.73;4.30;;;7.10;60.70;;;;;;5095035;28;20128;-72
2021/04/17 01:17:56;;;;;;;8.23;4.18;;;7.10;60.80;;;;;;5079001;28;20052;-73
2021/04/17 01:20:43;;;;;;;6.97;4.13;;;7.00;60.90;;;;;;5112529;28;20051;-74
2021/04/17 01:23:28;;;;;;;8.25;4.40;;;7.00;61.00;;;;;;5113009;28;20046;-72
2021/04/17 01:25:57;;;;;;;6.13;4.10;;;7.00;61.10;;;;;;5113075;28;20375;-71
2021/04/17 01:28:23;;;;;;;6.90;3.70;;;6.90;61.00;;;;;;5117478;28;20032;-72
2021/04/17 01:30:50;;;;;;;7.30;4.30;;;6.90;61.10;;;;;;5099906;28;20126;-71
2021/04/17 01:33:17;;;;;;;7.85;4.13;;;6.90;61.20;;;;;;5117135;28;20122;-71
2021/04/17 01:35:43;;;;;;;8.77;4.90;;;6.90;61.30;;;;;;5116728;28;20047;-73
2021/04/17 01:38:21;;;;;;;12.35;4.80;;;6.90;61.50;;;;;;5100650;28;20039;-72
2021/04/17 01:40:48;;;;;;;8.82;4.78;;;6.90;61.50;;;;;;5116645;28;20230;-72
2021/04/17 01:43:14;;;;;;;9.57;4.30;;;6.80;61.40;;;;;;5083386;28;20043;-71
2021/04/17 01:45:40;;;;;;;8.77;4.88;;;6.80;61.50;;;;;;5100652;28;20054;-71
2021/04/17 01:48:06;;;;;;;8.35;4.38;;;6.80;61.80;;;;;;5117541;28;20052;-72
2021/04/17 01:50:32;;;;;;;8.63;4.70;;;6.80;61.70;;;;;;5100271;28;20043;-71
2021/04/17 01:52:59;;;;;;;6.90;3.75;;;6.70;61.90;;;;;;5099634;28;20043;-71
2021/04/17 01:55:25;;;;;;;9.38;4.40;;;6.70;61.90;;;;;;5100503;28;20051;-72
2021/04/17 01:57:51;;;;;;;7.22;4.15;;;6.70;62.00;;;;;;5116886;28;20462;-72
2021/04/17 02:00:17;;;;;;;7.28;4.70;;;6.70;62.10;;;;;;5100012;28;20040;-72
2021/04/17 02:02:43;;;;;;;10.38;4.57;;;6.70;62.20;;;;;;5116759;28;20491;-72
2021/04/17 02:05:09;;;;;;;11.55;4.57;;;6.60;62.20;;;;;;5083431;28;20073;-71
2021/04/17 02:07:35;;;;;;;7.55;4.82;;;6.70;62.30;;;;;;5117823;28;20040;-73
2021/04/17 02:10:01;;;;;;;7.20;4.90;;;6.70;62.40;;;;;;5116416;28;20044;-71
2021/04/17 02:12:26;;;;;;;8.52;4.75;;;6.60;62.50;;;;;;5099602;28;20142;-71
2021/04/17 02:14:52;;;;;;;11.32;5.18;;;6.60;62.60;;;;;;5098760;28;20050;-71
2021/04/17 02:17:26;;;;;;;9.40;5.10;;;6.60;62.70;;;;;;5099425;28;20130;-72
2021/04/17 02:20:06;;;;;;;7.70;4.45;;;6.60;63.00;;;;;;5099117;28;20054;-72
2021/04/17 02:22:32;;;;;;;8.27;4.47;;;6.60;63.30;;;;;;5115690;28;20075;-73
2021/04/17 02:24:58;;;;;;;6.50;4.53;;;6.60;63.10;;;;;;5116615;28;20039;-71
2021/04/17 02:27:24;;;;;;;7.88;4.43;;;6.60;63.10;;;;;;5099182;28;20139;-71
2021/04/17 02:29:51;;;;;;;9.23;4.43;;;6.50;63.30;;;;;;5098577;28;20107;-71
2021/04/17 02:32:17;;;;;;;9.50;5.68;;;6.50;63.30;;;;;;5082292;28;20049;-69
2021/04/17 02:34:43;;;;;;;10.40;5.57;;;6.50;63.40;;;;;;5115419;28;20554;-72
2021/04/17 02:37:09;;;;;;;6.78;4.57;;;6.50;63.40;;;;;;5098598;28;20107;-72
2021/04/17 02:39:35;;;;;;;9.25;4.63;;;6.40;63.40;;;;;;5098301;28;20043;-73
2021/04/17 02:42:01;;;;;;;7.20;5.15;;;6.50;63.40;;;;;;5098335;28;20047;-73
2021/04/17 02:44:26;;;;;;;9.93;4.72;;;6.50;63.40;;;;;;5113989;28;20054;-71
2021/04/17 02:46:52;;;;;;;9.38;4.95;;;6.50;63.40;;;;;;5097296;28;20043;-72
2021/04/17 02:49:18;;;;;;;10.60;4.70;;;6.50;63.40;;;;;;5097887;28;20039;-70
2021/04/17 02:51:43;;;;;;;10.20;4.85;;;6.40;63.20;;;;;;5114420;28;20164;-72
2021/04/17 02:54:10;;;;;;;9.93;4.57;;;6.50;63.40;;;;;;5081916;28;20075;-70
2021/04/17 02:56:36;;;;;;;10.52;5.25;;;6.50;63.40;;;;;;5098462;28;20040;-75
2021/04/17 02:59:02;;;;;;;9.25;5.07;;;6.40;63.40;;;;;;5097970;28;20050;-73
2021/04/17 03:01:28;;;;;;;6.50;4.47;;;6.40;63.30;;;;;;5081618;28;20446;-72
2021/04/17 03:03:53;;;;;;;5.72;4.38;;;6.40;63.30;;;;;;5116049;28;20089;-70
2021/04/17 03:06:19;;;;;;;7.28;4.45;;;6.30;63.20;;;;;;5081251;28;20048;-72
2021/04/17 03:08:45;;;;;;;7.50;4.22;;;6.30;63.30;;;;;;5114143;28;20055;-73
2021/04/17 03:11:11;;;;;;;8.18;3.85;;;6.30;63.40;;;;;;5114877;28;20089;-70
2021/04/17 03:13:36;;;;;;;9.57;4.75;;;6.30;63.30;;;;;;5114549;28;20433;-74
2021/04/17 03:16:02;;;;;;;10.45;4.22;;;6.30;63.30;;;;;;5097687;28;20051;-73
2021/04/17 03:18:28;;;;;;;7.50;4.13;;;6.30;63.30;;;;;;5097773;28;20074;-72
2021/04/17 03:20:54;;;;;;;8.80;4.38;;;6.30;63.20;;;;;;5080607;28;20051;-71
2021/04/17 03:23:20;;;;;;;7.00;4.25;;;6.30;63.40;;;;;;5097724;28;20043;-71
2021/04/17 03:25:46;;;;;;;6.57;3.97;;;6.30;63.50;;;;;;5114381;28;20443;-70
2021/04/17 03:28:12;;;;;;;6.50;3.90;;;6.30;63.60;;;;;;5097538;28;20039;-71
2021/04/17 03:30:37;;;;;;;7.82;4.30;;;6.30;63.60;;;;;;5114049;28;20070;-73
2021/04/17 03:33:03;;;;;;;7.38;4.35;;;6.20;63.60;;;;;;5114196;28;20103;-72
2021/04/17 03:35:30;;;;;;;7.93;4.88;;;6.20;63.70;;;;;;5115587;28;20117;-72
2021/04/17 03:37:56;;;;;;;7.63;4.50;;;6.20;63.80;;;;;;5096763;28;20040;-72
2021/04/17 03:40:22;;;;;;;7.25;4.07;;;6.20;63.80;;;;;;5114374;28;20055;-72
2021/04/17 03:42:48;;;;;;;6.90;4.40;;;6.20;63.90;;;;;;5114115;28;20044;-72
2021/04/17 03:45:14;;;;;;;6.13;4.05;;;6.20;63.90;;;;;;5113968;28;20352;-71
2021/04/17 03:47:40;;;;;;;6.82;3.83;;;6.10;64.00;;;;;;5113692;28;20048;-73
2021/04/17 03:50:06;;;;;;;8.55;4.93;;;6.10;64.00;;;;;;5096507;28;20104;-71
2021/04/17 03:52:32;;;;;;;6.70;4.25;;;6.10;64.00;;;;;;5114359;28;20043;-72
2021/04/17 03:54:58;;;;;;;7.38;4.15;;;6.10;64.00;;;;;;5113600;28;20043;-73
2021/04/17 03:57:24;;;;;;;7.40;4.32;;;6.10;64.10;;;;;;5113921;28;20051;-72
2021/04/17 03:59:49;;;;;;;7.82;4.28;;;6.10;64.30;;;;;;5111717;28;20097;-72
2021/04/17 04:02:15;;;;;;;8.82;4.30;;;6.10;64.30;;;;;;5114199;28;20487;-72
2021/04/17 04:04:41;;;;;;;7.63;4.10;;;6.10;64.30;;;;;;5113132;28;20047;-73
2021/04/17 04:07:07;;;;;;;5.47;3.47;;;6.10;64.50;;;;;;5096617;28;20572;-71
2021/04/17 04:09:33;;;;;;;9.50;4.75;;;6.10;64.50;;;;;;5114722;28;20062;-72
2021/04/17 04:11:58;;;;;;;7.63;4.07;;;6.10;64.50;;;;;;5096642;28;20051;-71
2021/04/17 04:14:25;;;;;;;7.13;4.22;;;6.00;64.40;;;;;;5114951;28;20043;-70
2021/04/17 04:16:50;;;;;;;6.35;4.32;;;6.00;64.50;;;;;;5114453;28;20040;-72
2021/04/17 04:19:17;;;;;;;6.20;3.75;;;6.00;64.60;;;;;;5097525;28;20040;-71
2021/04/17 04:21:42;;;;;;;7.22;4.10;;;6.00;64.60;;;;;;5115298;28;20049;-73
2021/04/17 04:24:09;;;;;;;6.85;4.47;;;6.00;64.60;;;;;;5097910;28;20116;-72
2021/04/17 04:26:35;;;;;;;8.70;4.00;;;6.00;64.70;;;;;;5115269;28;20070;-72
2021/04/17 04:29:01;;;;;;;8.27;4.15;;;6.00;64.70;;;;;;5113065;28;20471;-72
2021/04/17 04:31:26;;;;;;;7.53;3.83;;;6.00;64.70;;;;;;5100540;28;20039;-71
2021/04/17 04:33:52;;;;;;;6.60;3.75;;;6.00;64.70;;;;;;5117839;28;20050;-72
2021/04/17 04:36:18;;;;;;;6.70;3.83;;;5.90;64.70;;;;;;5119586;28;20043;-72
2021/04/17 04:38:44;;;;;;;8.25;3.88;;;6.00;64.80;;;;;;5085482;28;20487;-74
2021/04/17 04:41:09;;;;;;;6.32;3.80;;;5.90;64.80;;;;;;5102199;28;20048;-71
2021/04/17 04:43:35;;;;;;;8.27;4.00;;;5.90;64.80;;;;;;5119803;28;20035;-71
2021/04/17 04:46:01;;;;;;;7.55;4.22;;;5.90;64.90;;;;;;5084891;28;20040;-71
2021/04/17 04:48:27;;;;;;;6.70;3.75;;;5.90;64.90;;;;;;5102313;28;20046;-71
2021/04/17 04:50:52;;;;;;;8.27;3.83;;;5.90;65.00;;;;;;5119924;28;20054;-71
2021/04/17 04:53:19;;;;;;;7.03;4.20;;;5.90;64.90;;;;;;5102541;28;20118;-72
2021/04/17 04:55:45;;;;;;;9.02;4.15;;;5.90;65.00;;;;;;5102517;28;20048;-73
2021/04/17 04:58:10;;;;;;;8.25;4.03;;;5.90;65.10;;;;;;5120050;28;20146;-71
2021/04/17 05:00:36;;;;;;;6.57;3.90;;;5.90;65.20;;;;;;5118943;28;20541;-72
2021/04/17 05:03:02;;;;;;;7.35;3.50;;;5.90;65.50;;;;;;5118746;28;20162;-71
2021/04/17 05:05:28;;;;;;;6.70;3.95;;;5.80;65.50;;;;;;5118765;28;20047;-71
2021/04/17 05:07:53;;;;;;;8.00;3.70;;;5.80;65.50;;;;;;5117853;28;20107;-71
2021/04/17 05:10:20;;;;;;;6.93;3.20;;;5.80;65.40;;;;;;5118830;28;20059;-71
2021/04/17 05:12:45;;;;;;;5.97;3.58;;;5.80;65.50;;;;;;5118931;28;20107;-71
2021/04/17 05:15:11;;;;;;;8.52;3.33;;;5.80;65.40;;;;;;5119603;28;20437;-71
2021/04/17 05:17:37;;;;;;;6.93;3.40;;;5.80;65.20;;;;;;5101991;28;20042;-72
2021/04/17 05:20:05;;;;;;;7.97;3.13;;;5.80;65.40;;;;;;5118245;28;20048;-71
2021/04/17 05:22:30;;;;;;;6.38;3.25;;;5.80;65.50;;;;;;5101715;28;20047;-72
2021/04/17 05:24:56;;;;;;;9.38;3.92;;;5.80;65.50;;;;;;5100475;28;20097;-71
2021/04/17 05:27:22;;;;;;;6.28;3.45;;;5.90;65.40;;;;;;5118344;28;20394;-71
2021/04/17 05:29:47;;;;;;;7.53;3.60;;;5.80;65.40;;;;;;5118185;28;20040;-72
2021/04/17 05:32:13;;;;;;;7.35;3.28;;;5.80;65.40;;;;;;5118820;28;20082;-72
2021/04/17 05:34:39;;;;;;;5.47;2.58;;;5.80;65.50;;;;;;5117473;28;20135;-71
2021/04/17 05:37:05;;;;;;;8.88;3.30;;;5.80;65.50;;;;;;5116986;28;21071;-72
2021/04/17 05:39:31;;;;;;;7.53;3.80;;;5.80;65.60;;;;;;5100500;28;20506;-71
2021/04/17 05:41:56;;;;;;;6.10;3.22;;;5.80;65.60;;;;;;5099233;28;20046;-71
2021/04/17 05:44:22;;;;;;;7.90;3.80;;;5.80;65.60;;;;;;5100637;28;20118;-71
2021/04/17 05:46:48;;;;;;;6.72;3.10;;;5.80;65.60;;;;;;5117849;28;20051;-70
2021/04/17 05:49:14;;;;;;;7.43;3.38;;;5.80;65.70;;;;;;5117044;28;20036;-71
2021/04/17 05:51:41;;;;;;;8.38;3.55;;;5.80;65.70;;;;;;5116837;28;20052;-70
2021/04/17 05:54:07;;;;;;;7.45;2.88;;;5.80;65.80;;;;;;5117211;28;20039;-70
2021/04/17 05:56:32;;;;;;;7.38;4.10;;;5.80;65.90;;;;;;5118451;28;20044;-69
2021/04/17 05:58:59;;;;;;;6.50;3.03;;;5.90;66.10;;;;;;5106249;28;20042;-73
2021/04/17 06:01:24;;;;;;;7.95;3.38;;;5.90;66.20;;;;;;5089271;28;20444;-71
2021/04/17 06:03:50;;;;;;;6.47;3.25;;;5.80;66.30;;;;;;5106239;28;20063;-71
2021/04/17 06:06:16;;;;;;;9.07;3.30;;;5.80;66.50;;;;;;5092407;28;20116;-71
2021/04/17 06:08:43;;;;;;;6.93;2.88;;;5.90;66.70;;;;;;5106691;28;20048;-72
2021/04/17 06:11:08;;;;;;;5.85;3.20;;;5.90;66.70;;;;;;5072476;28;20051;-71
2021/04/17 06:13:35;;;;;;;5.10;2.95;;;5.90;66.80;;;;;;5090581;28;20121;-72
2021/04/17 06:16:01;;;;;;;10.35;4.65;;;5.90;67.00;;;;;;5109882;28;20054;-71
2021/04/17 06:18:27;;;;;;;8.02;3.53;;;5.90;67.10;;;;;;5103328;28;20126;-71
2021/04/17 06:20:53;;;;;;;7.13;3.10;;;5.90;67.10;;;;;;5091052;28;20044;-70
2021/04/17 06:23:20;;;;;;;8.40;3.00;;;6.00;67.40;;;;;;5108524;28;20060;-72
2021/04/17 06:25:45;;;;;;;8.27;3.47;;;6.00;67.60;;;;;;5104630;28;20070;-72
2021/04/17 06:28:11;;;;;;;7.35;2.80;;;6.00;67.60;;;;;;5106884;28;20044;-71
2021/04/17 06:30:37;;;;;;;7.72;3.42;;;6.00;67.70;;;;;;5100324;28;20087;-71
2021/04/17 06:33:03;;;;;;;6.40;3.38;;;6.00;67.80;;;;;;5078226;28;20048;-72
2021/04/17 06:35:30;;;;;;;9.25;3.58;;;6.00;68.00;;;;;;5095632;28;20115;-71
2021/04/17 06:37:56;;;;;;;9.50;3.85;;;6.00;68.10;;;;;;5078531;28;20043;-72
2021/04/17 06:40:22;;;;;;;8.80;3.53;;;6.10;68.30;;;;;;5094524;28;20036;-71
2021/04/17 06:42:48;;;;;;;11.23;3.85;;;6.10;68.80;;;;;;5064736;28;20056;-75
2021/04/17 06:45:14;;;;;;;10.10;3.47;;;6.10;68.80;;;;;;5098764;28;20052;-75
2021/04/17 06:47:42;;;;;;;8.25;3.45;;;6.10;69.00;;;;;;5100177;28;20040;-74
2021/04/17 06:50:08;;;;;;;11.90;4.03;;;6.20;69.30;;;;;;5090811;28;20054;-75
2021/04/17 06:52:36;;;;;;;11.98;4.25;;;6.20;69.50;;;;;;5080717;28;20465;-74
2021/04/17 06:55:02;;;;;;;10.98;3.42;;;6.20;69.70;;;;;;5068489;28;20040;-74
2021/04/17 06:57:28;;;;;;;11.55;3.53;;;6.30;69.80;;;;;;5090371;28;20477;-75
2021/04/17 06:59:53;;;;;;;11.73;4.03;;;6.30;70.00;;;;;;5064495;28;20114;-74
2021/04/17 07:02:19;;;;;;;9.98;3.65;;;6.30;70.10;;;;;;5053520;28;20540;-75
2021/04/17 07:04:45;;;;;;;9.88;3.75;;;6.40;70.30;;;;;;5074082;28;20051;-74
2021/04/17 07:07:11;;;;;;;11.80;4.18;;;6.50;70.30;;;;;;5088230;28;20040;-75
2021/04/17 07:09:38;;;;;;;9.43;3.85;;;6.50;70.50;;;;;;5055845;28;20052;-77
2021/04/17 07:12:04;;;;;;;14.18;5.35;;;6.50;70.60;;;;;;5067840;28;20118;-75
2021/04/17 07:14:50;;;;;;;8.10;3.47;;;6.50;70.60;;;;;;5075287;28;20048;-74
2021/04/17 07:17:16;;;;;;;7.70;3.70;;;6.60;71.10;;;;;;5058495;28;20044;-75
2021/04/17 07:19:45;;;;;;;10.18;3.88;;;6.60;70.70;;;;;;5069323;28;20111;-75
2021/04/17 07:22:25;;;;;;;8.48;3.88;;;6.60;70.70;;;;;;5093293;28;20381;-75
2021/04/17 07:24:52;;;;;;;12.45;4.20;;;6.70;70.90;;;;;;5090611;28;20117;-75
2021/04/17 07:27:35;;;;;;;13.90;4.47;;;6.70;70.90;;;;;;5073385;28;20050;-73
2021/04/17 07:30:17;;;;;;;10.57;3.65;;;6.80;71.20;;;;;;5070820;28;20148;-76
2021/04/17 07:32:46;;;;;;;10.85;3.50;;;6.80;71.10;;;;;;5085552;28;20059;-75
2021/04/17 07:35:15;;;;;;;12.98;4.00;;;6.80;71.00;;;;;;5090121;28;20071;-74
2021/04/17 07:37:45;;;;;;;14.80;4.63;;;6.90;71.00;;;;;;5089200;28;20036;-74
2021/04/17 07:40:14;;;;;;;12.55;5.13;;;6.90;71.10;;;;;;5090509;28;20046;-73
2021/04/17 07:42:40;;;;;;;9.18;3.50;;;6.90;71.20;;;;;;5093312;28;20123;-74
2021/04/17 07:45:39;;;;;;;10.25;4.03;;;7.00;71.30;;;;;;5072662;28;20086;-75
2021/04/17 07:48:26;;;;;;;13.48;4.68;;;7.00;71.40;;;;;;5091490;28;20047;-75
2021/04/17 07:50:54;;;;;;;15.98;4.15;;;7.10;71.70;;;;;;5081864;28;20039;-75
2021/04/17 07:53:33;;;;;;;10.60;3.45;;;7.10;71.00;;;;;;5066140;28;20463;-75
2021/04/17 07:56:26;;;;;;;12.20;3.80;;;7.10;71.20;;;;;;5115011;27;20044;-73
2021/04/17 07:58:52;;;;;;;;;;;7.20;71.60;;;;;;5074839;28;20484;-73
2021/04/17 08:01:19;;;;;;;12.60;4.57;;;7.20;71.80;;;;;;5070174;28;20007;-76
2021/04/17 08:03:45;;;;;;;11.82;4.65;;;7.20;70.70;;;;;;5054884;28;20052;-74
2021/04/17 08:06:15;;;;;;;11.68;4.70;;;7.30;70.90;;;;;;5084787;28;20071;-74
2021/04/17 08:08:41;;;;;;;8.98;3.70;;;7.30;71.00;;;;;;5065924;28;20157;-74
2021/04/17 08:11:08;;;;;;;11.05;3.95;;;7.40;71.00;;;;;;5116437;27;20040;-76
2021/04/17 08:13:37;;;;;;;10.27;3.92;;;7.40;70.80;;;;;;5072553;28;20043;-75
2021/04/17 08:16:04;;;;;;;14.55;5.13;;;7.40;70.70;;;;;;5083679;28;20048;-77
2021/04/17 08:18:30;;;;;;;10.93;4.25;;;7.50;70.70;;;;;;5048086;28;20035;-75
2021/04/17 08:20:55;;;;;;;10.02;4.18;;;7.50;70.90;;;;;;5071325;28;20090;-74
2021/04/17 08:23:22;;;;;;;9.52;3.50;;;7.50;71.00;;;;;;5070851;28;20129;-75
2021/04/17 08:25:51;;;;;;;8.68;4.10;;;7.60;70.80;;;;;;5068418;28;20136;-75
2021/04/17 08:28:18;;;;;;;11.77;4.07;;;7.70;70.90;;;;;;5072497;28;20058;-76
2021/04/17 08:30:44;;;;;;;9.45;4.10;;;7.70;71.00;;;;;;5074464;28;20035;-72
2021/04/17 08:33:17;;;;;;;9.98;3.65;;;7.70;70.70;;;;;;5089827;28;20052;-74
2021/04/17 08:35:43;;;;;;;11.13;3.60;;;7.80;70.40;;;;;;5086865;28;20040;-74
2021/04/17 08:38:18;;;;;;;7.60;3.63;;;8.00;71.50;;;;;;5074862;28;20059;-74
2021/04/17 08:40:48;;;;;;;10.45;4.68;;;8.20;71.50;;;;;;5076646;28;20040;-72
2021/04/17 08:43:16;;;;;;;13.10;3.75;;;8.30;70.70;;;;;;5091156;28;20088;-73
2021/04/17 08:46:08;;;;;;;11.48;4.28;;;8.30;70.10;;;;;;5092734;28;20392;-73
2021/04/17 08:48:50;;;;;;;7.45;3.47;;;8.40;70.00;;;;;;5090808;28;20048;-74
2021/04/17 08:51:22;;;;;;;10.65;4.20;;;8.40;69.60;;;;;;5105549;28;20113;-73
2021/04/17 08:54:01;;;;;;;9.63;3.60;;;8.40;69.50;;;;;;5092346;28;20047;-73
2021/04/17 08:56:53;;;;;;;11.70;4.88;;;8.50;69.40;;;;;;5102490;28;20047;-74
2021/04/17 08:59:29;;;;;;;11.13;3.90;;;8.50;69.30;;;;;;5095199;28;20047;-74
2021/04/17 09:01:57;;;;;;;9.43;4.13;;;8.50;69.00;;;;;;5061357;28;20036;-76
2021/04/17 09:04:23;;;;;;;7.38;3.70;;;8.60;68.90;;;;;;5084293;28;20037;-77
2021/04/17 09:06:51;;;;;;;10.02;4.15;;;8.60;68.60;;;;;;5082521;28;20052;-79
2021/04/17 09:09:20;;;;;;;7.00;3.25;;;8.60;68.50;;;;;;5077928;28;20051;-68
2021/04/17 09:11:47;;;;;;;6.60;2.60;;;8.90;70.40;;;;;;5084377;28;20040;-70
2021/04/17 09:14:28;;;;;;;6.55;2.70;;;9.70;70.20;;;;;;5085002;28;20060;-69
2021/04/17 09:16:54;;;;;;;8.70;3.85;;;10.60;69.20;;;;;;5094610;28;20042;-77
2021/04/17 09:19:39;;;;;;;10.70;4.47;;;11.10;65.90;;;;;;5090323;28;20144;-78
2021/04/17 09:22:24;;;;;;;9.13;4.30;;;11.20;64.70;;;;;;5095100;28;20051;-78
2021/04/17 09:25:01;;;;;;;11.02;4.35;;;11.10;64.10;;;;;;5096653;28;20052;-77
2021/04/17 09:27:31;;;;;;;9.52;4.22;;;11.00;64.60;;;;;;5070813;28;20140;-77
2021/04/17 09:30:08;;;;;;;12.10;5.15;;;11.00;64.80;;;;;;5089534;28;20048;-79
2021/04/17 09:32:35;;;;;;;11.75;4.47;;;10.90;64.50;;;;;;5055982;28;20036;-76
2021/04/17 09:35:01;;;;;;;7.90;4.13;;;10.80;64.70;;;;;;5088571;28;20046;-76
2021/04/17 09:37:28;;;;;;;9.27;3.97;;;10.90;64.80;;;;;;5088122;28;20119;-77
2021/04/17 09:39:54;;;;;;;10.88;4.30;;;10.90;64.80;;;;;;5055049;28;20036;-79
2021/04/17 09:42:31;;;;;;;10.05;4.55;;;10.90;64.80;;;;;;5090114;28;20059;-79
2021/04/17 09:44:56;;;;;;;8.30;4.38;;;11.00;63.90;;;;;;5083638;28;20043;-82
2021/04/17 09:47:22;;;;;;;9.15;4.97;;;10.90;63.90;;;;;;5071483;28;20039;-78
2021/04/17 09:49:49;;;;;;;13.55;4.35;;;11.00;63.70;;;;;;5088315;28;20036;-76
2021/04/17 09:52:22;;;;;;;7.97;3.83;;;11.00;63.50;;;;;;5082813;28;20059;-78
2021/04/17 09:54:58;;;;;;;10.43;4.75;;;11.10;63.30;;;;;;5087033;28;20036;-77
2021/04/17 09:57:24;;;;;;;7.10;3.47;;;11.30;63.60;;;;;;5087069;28;20132;-78
2021/04/17 09:59:59;;;;;;;6.80;2.55;;;11.40;63.10;;;;;;5088690;28;20178;-79
2021/04/17 10:02:40;;;;;;;6.57;3.50;;;11.70;64.50;;;;;;5070015;28;20041;-78
2021/04/17 10:05:06;;;;;;;8.07;4.28;;;11.90;62.50;;;;;;5088153;28;20473;-78
2021/04/17 10:07:44;;;;;;;5.22;2.65;;;12.10;61.60;;;;;;5070313;28;20053;-76
2021/04/17 10:10:10;;;;;;;6.15;2.83;;;12.40;61.60;;;;;;5093303;28;20113;-77
2021/04/17 10:12:55;;;;;;;9.50;3.25;;;12.90;60.60;;;;;;5064678;28;20059;-77
2021/04/17 10:15:23;;;;;;;10.73;3.50;;;13.20;57.50;;;;;;5068470;28;20491;-84
2021/04/17 10:17:50;;;;;;;9.00;3.75;;;13.20;57.60;;;;;;5080398;28;20095;-77
2021/04/17 10:20:15;;;;;;;8.65;3.60;;;13.10;57.00;;;;;;5095890;28;20054;-77
2021/04/17 10:22:49;;;;;;;8.80;4.43;;;13.00;57.10;;;;;;5053436;28;20040;-76
2021/04/17 10:25:44;;;;;;;7.60;3.70;;;13.00;56.50;;;;;;5071198;28;20041;-79
2021/04/17 10:28:24;;;;;;;8.32;3.67;;;12.90;56.00;;;;;;5070986;28;20456;-79
2021/04/17 10:31:12;;;;;;;10.60;3.58;;;12.90;55.80;;;;;;5054388;28;20381;-78
2021/04/17 10:33:42;;;;;;;7.10;3.05;;;12.90;55.70;;;;;;5053392;28;20048;-77
2021/04/17 10:36:15;;;;;;;10.23;6.15;;;12.90;55.40;;;;;;5072520;28;20047;-86
2021/04/17 10:38:41;;;;;;;9.35;6.43;;;13.10;57.80;;;;;;5038308;28;20062;-74
2021/04/17 10:41:07;;;;;;;5.43;3.97;;;13.60;57.60;;;;;;5066565;28;20068;-75
2021/04/17 10:43:33;;;;;;;6.88;4.47;;;14.00;56.50;;;;;;5098523;28;20075;-75
2021/04/17 10:46:02;;;;;;;7.13;4.05;;;14.20;55.30;;;;;;5049715;28;20051;-75
2021/04/17 10:48:28;;;;;;;7.97;4.28;;;14.40;54.50;;;;;;5061706;28;20071;-76
2021/04/17 10:50:55;;;;;;;6.38;4.30;;;14.50;53.90;;;;;;5087244;28;20048;-77
2021/04/17 10:53:23;;;;;;;10.70;6.13;;;14.70;53.40;;;;;;5086902;28;20119;-76
2021/04/17 10:55:57;;;;;;;9.20;6.00;;;15.00;54.10;;;;;;5084593;28;20091;-76
2021/04/17 10:58:33;;;;;;;14.02;7.18;;;15.30;54.20;;;;;;5056787;28;20059;-74
2021/04/17 11:01:01;;;;;;;9.23;5.90;;;15.40;53.80;;;;;;5090799;28;20124;-73
2021/04/17 11:03:29;;;;;;;10.60;6.75;;;15.70;53.40;;;;;;5073821;28;20040;-80
2021/04/17 11:05:56;;;;;;;10.82;5.57;;;15.80;52.80;;;;;;5090961;28;20062;-76
2021/04/17 11:08:31;;;;;;;15.55;7.53;;;15.90;52.30;;;;;;5074141;28;20040;-70
2021/04/17 11:20:44;;;;;;;10.32;5.60;;;16.40;48.90;;;;;;5128339;27;20362;-73
2021/04/17 11:23:33;;;;;;;9.02;4.55;;;16.70;49.40;;;;;;5090514;28;20043;-73
2021/04/17 11:26:00;;;;;;;9.50;5.00;;;16.80;47.60;;;;;;5089223;28;20528;-73
2021/04/17 11:28:27;;;;;;;10.77;4.45;;;16.80;48.40;;;;;;5107454;28;20050;-73
2021/04/17 11:30:54;;;;;;;11.60;6.10;;;16.80;48.60;;;;;;5106666;28;20054;-74
2021/04/17 11:33:19;;;;;;;8.15;4.53;;;16.70;47.20;;;;;;5090194;28;20472;-73
2021/04/17 11:35:45;;;;;;;7.50;4.90;;;16.80;46.60;;;;;;5106039;28;20075;-73
2021/04/17 11:38:11;;;;;;;9.27;4.05;;;16.90;45.90;;;;;;5089633;28;20051;-76
2021/04/17 11:40:37;;;;;;;7.78;4.60;;;17.00;45.70;;;;;;5107362;28;20047;-70
2021/04/17 11:43:02;;;;;;;8.90;4.78;;;17.30;45.90;;;;;;5098818;28;20495;-72
2021/04/17 11:45:28;;;;;;;12.35;5.10;;;17.60;45.50;;;;;;5086361;28;20143;-70
2021/04/17 11:47:54;;;;;;;10.07;5.50;;;18.00;45.00;;;;;;5098189;28;20044;-72
2021/04/17 11:50:20;;;;;;;13.70;5.78;;;18.20;44.40;;;;;;5072496;28;20123;-73
2021/04/17 11:52:45;;;;;;;10.25;5.53;;;18.50;43.70;;;;;;5095423;28;20102;-80
2021/04/17 11:55:11;;;;;;;23.17;9.18;;;18.80;42.90;;;;;;5070479;28;20055;-81
2021/04/17 11:57:37;;;;;;;7.93;4.95;;;19.10;41.70;;;;;;5087826;28;20036;-75
2021/04/17 12:00:04;;;;;;;10.60;5.68;;;19.30;40.90;;;;;;5087825;28;20044;-76
2021/04/17 12:02:30;;;;;;;7.85;5.15;;;19.50;40.70;;;;;;5086299;28;20143;-81
2021/04/17 12:04:56;;;;;;;6.50;4.90;;;19.70;40.30;;;;;;5081882;28;20100;-81
2021/04/17 12:07:22;;;;;;;7.47;4.45;;;19.80;40.10;;;;;;5070158;28;20446;-81
2021/04/17 12:09:48;;;;;;;7.82;3.88;;;19.90;40.20;;;;;;5069343;28;20040;-80
2021/04/17 12:12:13;;;;;;;7.07;4.05;;;20.10;40.60;;;;;;5086299;28;20477;-78
2021/04/17 12:14:39;;;;;;;6.25;3.17;;;20.20;40.10;;;;;;5085915;28;20098;-80
2021/04/17 12:17:05;;;;;;;6.75;3.45;;;20.30;39.70;;;;;;5069813;28;20067;-79
2021/04/17 12:19:32;;;;;;;7.20;3.90;;;20.30;39.20;;;;;;5085938;28;20056;-79
2021/04/17 12:21:58;;;;;;;9.10;3.22;;;20.30;38.70;;;;;;5085938;28;20036;-78
2021/04/17 12:24:25;;;;;;;6.82;3.20;;;20.40;38.70;;;;;;5069685;28;20044;-78
2021/04/17 12:26:51;;;;;;;6.82;3.22;;;20.40;38.10;;;;;;5085362;28;20510;-78
2021/04/17 12:29:17;;;;;;;6.13;3.33;;;20.40;38.30;;;;;;5086337;28;20070;-80
2021/04/17 12:31:43;;;;;;;4.43;2.60;;;20.40;37.80;;;;;;5056811;28;20048;-80
2021/04/17 12:34:09;;;;;;;4.85;3.47;;;20.60;38.00;;;;;;5056342;28;20040;-79
2021/04/17 12:36:34;;;;;;;6.45;3.20;;;20.60;37.50;;;;;;5056084;28;20456;-81
2021/04/17 12:39:00;;;;;;;6.50;3.40;;;20.60;37.40;;;;;;5090335;28;20089;-78
2021/04/17 12:41:26;;;;;;;5.28;3.22;;;20.50;37.20;;;;;;5075638;28;20431;-79
2021/04/17 12:43:52;;;;;;;4.70;3.22;;;20.50;37.40;;;;;;5090769;28;20071;-77
2021/04/17 12:46:18;;;;;;;7.13;3.28;;;20.60;38.10;;;;;;5057664;28;20089;-79
2021/04/17 12:48:43;;;;;;;5.20;2.75;;;20.60;37.90;;;;;;5068131;28;20051;-73
2021/04/17 12:51:09;;;;;;;4.53;3.05;;;20.50;37.30;;;;;;5081521;28;20491;-74
2021/04/17 12:53:35;;;;;;;6.10;2.88;;;20.30;37.60;;;;;;5084391;28;20443;-72
2021/04/17 12:56:01;;;;;;;4.75;2.97;;;19.90;37.20;;;;;;5091185;28;20036;-74
2021/04/17 12:58:26;;;;;;;4.85;2.85;;;19.60;36.80;;;;;;5090458;28;20044;-75
2021/04/17 13:00:52;;;;;;;3.88;2.63;;;19.30;36.20;;;;;;5069345;28;20408;-74
2021/04/17 13:03:18;;;;;;;6.43;3.35;;;19.10;36.20;;;;;;5072815;28;20138;-75
2021/04/17 13:05:44;;;;;;;6.05;2.78;;;18.90;35.50;;;;;;5070564;28;20047;-75
2021/04/17 13:08:10;;;;;;;7.60;2.88;;;18.90;35.50;;;;;;5071178;28;20091;-75